Time;durP1;ratioP1;P1;durP2;ratioP2;P2;SDS_P1;SDS_P2;PMS_P1;PMS_P2;Temp;Humidity;BMP_temperature;BMP_pressure;BME280_temperature;BME280_humidity;BME280_pressure;Samples;Min_cycle;Max_cycle;Signal;HPM_P1;HPM_P2
2021/01/25 00:02:01;;;;;;;9.37;7.40;;;0.70;99.90;;;;;;5033153;28;20189;-73
2021/01/25 00:04:27;;;;;;;9.77;7.57;;;0.80;99.90;;;;;;5032615;28;20261;-74
2021/01/25 00:06:52;;;;;;;8.07;5.90;;;0.80;99.90;;;;;;5032126;28;20216;-73
2021/01/25 00:09:17;;;;;;;8.70;6.53;;;0.80;99.90;;;;;;5032972;28;20662;-73
2021/01/25 00:11:43;;;;;;;10.60;6.00;;;0.90;99.90;;;;;;5032056;28;20186;-73
2021/01/25 00:14:08;;;;;;;7.10;6.40;;;1.00;99.90;;;;;;5033266;28;20924;-72
2021/01/25 00:16:34;;;;;;;7.93;6.40;;;1.00;99.90;;;;;;5032774;28;20198;-73
2021/01/25 00:19:00;;;;;;;9.00;6.10;;;1.00;99.90;;;;;;5033098;28;20329;-72
2021/01/25 00:21:25;;;;;;;6.30;5.70;;;0.90;99.90;;;;;;5030868;28;20602;-73
2021/01/25 00:23:51;;;;;;;6.20;5.60;;;0.90;99.90;;;;;;5032858;28;20262;-73
2021/01/25 00:26:16;;;;;;;6.43;5.70;;;0.80;99.90;;;;;;5032334;28;20224;-73
2021/01/25 00:28:42;;;;;;;6.90;6.30;;;0.60;99.90;;;;;;5033074;28;20716;-73
2021/01/25 00:31:07;;;;;;;7.10;6.37;;;0.60;99.90;;;;;;5032390;28;20202;-73
2021/01/25 00:33:33;;;;;;;10.10;6.00;;;0.50;99.90;;;;;;5031794;28;20234;-73
2021/01/25 00:35:59;;;;;;;10.77;7.67;;;0.60;99.90;;;;;;5032269;28;20173;-74
2021/01/25 00:38:24;;;;;;;6.63;6.03;;;0.60;99.90;;;;;;5032633;28;20281;-73
2021/01/25 00:40:50;;;;;;;7.93;6.67;;;0.60;99.90;;;;;;5032633;28;20175;-73
2021/01/25 00:43:15;;;;;;;6.17;5.37;;;0.70;99.90;;;;;;5032881;28;20188;-74
2021/01/25 00:45:41;;;;;;;6.83;5.40;;;0.70;99.90;;;;;;5031976;28;20182;-74
2021/01/25 00:48:07;;;;;;;6.70;5.90;;;0.70;99.90;;;;;;5032497;28;20743;-71
2021/01/25 00:50:32;;;;;;;5.63;5.13;;;0.70;99.90;;;;;;5032501;28;20728;-71
2021/01/25 00:52:58;;;;;;;8.80;5.60;;;0.70;99.90;;;;;;5032034;28;20264;-71
2021/01/25 00:55:24;;;;;;;5.90;5.27;;;0.70;99.90;;;;;;5032084;28;20290;-72
2021/01/25 00:57:49;;;;;;;9.30;6.13;;;0.70;99.90;;;;;;5031728;28;20340;-74
2021/01/25 01:00:16;;;;;;;8.73;6.40;;;0.60;99.90;;;;;;5032057;28;20182;-71
2021/01/25 01:02:41;;;;;;;9.60;6.07;;;0.60;99.90;;;;;;5032401;28;20170;-74
2021/01/25 01:05:08;;;;;;;8.17;6.57;;;0.60;99.90;;;;;;5032024;28;20590;-72
2021/01/25 01:07:34;;;;;;;8.43;6.33;;;0.60;99.90;;;;;;5031105;28;20210;-72
2021/01/25 01:10:00;;;;;;;7.00;5.77;;;0.70;99.90;;;;;;5031860;28;20798;-71
2021/01/25 01:12:26;;;;;;;6.83;6.13;;;0.60;99.90;;;;;;5032107;28;20491;-72
2021/01/25 01:14:52;;;;;;;8.40;6.17;;;0.60;99.90;;;;;;5031991;28;20428;-71
2021/01/25 01:17:17;;;;;;;9.23;5.97;;;0.60;99.90;;;;;;5031822;28;20660;-72
2021/01/25 01:19:43;;;;;;;8.17;5.83;;;0.60;99.90;;;;;;5031900;28;20186;-74
2021/01/25 01:22:08;;;;;;;8.83;6.53;;;0.50;99.90;;;;;;5031569;28;20642;-74
2021/01/25 01:24:34;;;;;;;11.83;6.67;;;0.50;99.90;;;;;;5031931;28;20186;-74
2021/01/25 01:26:59;;;;;;;9.83;6.20;;;0.40;99.90;;;;;;5031469;28;20252;-71
2021/01/25 01:29:25;;;;;;;11.10;6.20;;;0.40;99.90;;;;;;5031492;28;20205;-71
2021/01/25 01:31:50;;;;;;;9.50;7.80;;;0.50;99.90;;;;;;5031749;28;20305;-72
2021/01/25 01:34:16;;;;;;;7.27;6.53;;;0.40;99.90;;;;;;5031923;28;20182;-74
2021/01/25 01:36:41;;;;;;;9.67;6.73;;;0.30;99.90;;;;;;5031378;28;20257;-72
2021/01/25 01:39:07;;;;;;;7.47;5.67;;;0.30;99.90;;;;;;5031606;28;20174;-72
2021/01/25 01:41:36;;;;;;;8.03;6.53;;;0.30;99.90;;;;;;5031541;28;20178;-72
2021/01/25 01:44:04;;;;;;;7.03;5.93;;;0.30;99.90;;;;;;5031256;28;20265;-72
2021/01/25 01:46:29;;;;;;;7.03;5.90;;;0.30;99.90;;;;;;5030675;28;20785;-72
2021/01/25 01:48:55;;;;;;;7.23;6.50;;;0.30;99.90;;;;;;5031776;28;20428;-72
2021/01/25 01:51:21;;;;;;;6.87;6.20;;;0.30;99.90;;;;;;5031285;28;20170;-74
2021/01/25 01:53:46;;;;;;;8.23;6.87;;;0.30;99.90;;;;;;5030579;28;20209;-73
2021/01/25 01:56:12;;;;;;;8.10;6.60;;;0.30;99.90;;;;;;5030712;28;20166;-73
2021/01/25 01:58:37;;;;;;;11.30;7.10;;;0.30;99.90;;;;;;5030693;28;20174;-73
2021/01/25 02:01:03;;;;;;;6.80;6.10;;;0.40;99.90;;;;;;5031023;28;20174;-73
2021/01/25 02:03:28;;;;;;;8.83;6.83;;;0.40;99.90;;;;;;5026723;28;20723;-74
2021/01/25 02:05:54;;;;;;;8.40;6.90;;;0.50;99.90;;;;;;5030281;28;20187;-73
2021/01/25 02:08:21;;;;;;;6.50;5.57;;;0.60;99.90;;;;;;5030364;28;20217;-74
2021/01/25 02:10:49;;;;;;;7.30;6.60;;;0.70;99.90;;;;;;5031287;28;20710;-70
2021/01/25 02:13:16;;;;;;;16.40;7.03;;;0.70;99.90;;;;;;5030857;28;20534;-74
2021/01/25 02:15:42;;;;;;;7.00;6.30;;;0.70;99.90;;;;;;5012236;28;20435;-73
2021/01/25 02:18:07;;;;;;;14.37;6.37;;;0.80;99.90;;;;;;5030601;28;20440;-74
2021/01/25 02:20:42;;;;;;;7.77;5.90;;;0.70;99.90;;;;;;5030800;28;20620;-73
2021/01/25 02:23:22;;;;;;;8.20;6.50;;;0.70;99.90;;;;;;5030850;28;20174;-73
2021/01/25 02:26:03;;;;;;;10.60;5.90;;;0.70;99.90;;;;;;5029802;28;20531;-74
2021/01/25 02:28:32;;;;;;;8.90;6.00;;;0.70;99.90;;;;;;5030681;28;20468;-74
2021/01/25 02:31:00;;;;;;;10.43;6.30;;;0.80;99.90;;;;;;5030410;28;20456;-74
2021/01/25 02:33:28;;;;;;;14.77;6.70;;;0.80;99.90;;;;;;5030124;28;20475;-73
2021/01/25 02:35:55;;;;;;;9.40;6.83;;;0.80;99.90;;;;;;5030203;28;20437;-74
2021/01/25 02:38:22;;;;;;;12.37;7.33;;;0.80;99.90;;;;;;5029752;28;20449;-74
2021/01/25 02:40:50;;;;;;;11.40;7.63;;;0.70;99.90;;;;;;5030346;28;20555;-74
2021/01/25 02:43:17;;;;;;;13.10;6.47;;;0.70;99.90;;;;;;5030527;28;20515;-73
2021/01/25 02:45:44;;;;;;;9.17;7.00;;;0.70;99.90;;;;;;5029860;28;20437;-73
2021/01/25 02:48:10;;;;;;;7.13;6.43;;;0.80;99.90;;;;;;5030507;28;20952;-73
2021/01/25 02:50:36;;;;;;;7.77;6.90;;;0.80;99.90;;;;;;5029931;28;20466;-73
2021/01/25 02:53:02;;;;;;;9.13;7.10;;;0.80;99.90;;;;;;5030201;28;20464;-73
2021/01/25 02:55:27;;;;;;;9.20;6.73;;;0.90;99.90;;;;;;5029960;28;20178;-73
2021/01/25 02:57:55;;;;;;;8.27;7.53;;;0.90;99.90;;;;;;5029454;28;20449;-73
2021/01/25 03:00:21;;;;;;;10.80;8.50;;;0.90;99.90;;;;;;5029996;28;20178;-73
2021/01/25 03:02:47;;;;;;;7.93;7.13;;;0.90;99.90;;;;;;5029860;28;20490;-73
2021/01/25 03:05:13;;;;;;;10.47;7.30;;;0.90;99.90;;;;;;5030087;28;20177;-73
2021/01/25 03:07:38;;;;;;;9.70;8.40;;;0.90;99.90;;;;;;5030076;28;20558;-73
2021/01/25 03:10:05;;;;;;;10.27;7.83;;;1.00;99.90;;;;;;5029686;28;20171;-73
2021/01/25 03:12:31;;;;;;;10.97;8.03;;;0.90;99.90;;;;;;5029959;28;20217;-73
2021/01/25 03:14:56;;;;;;;10.40;7.70;;;0.80;99.90;;;;;;5030311;28;20429;-73
2021/01/25 03:17:22;;;;;;;9.33;7.07;;;0.80;99.90;;;;;;5029316;28;21002;-73
2021/01/25 03:19:48;;;;;;;8.93;8.03;;;0.80;99.90;;;;;;5029852;28;20578;-73
2021/01/25 03:22:13;;;;;;;13.43;8.63;;;0.80;99.90;;;;;;5029759;28;20257;-73
2021/01/25 03:24:39;;;;;;;9.60;7.80;;;0.90;99.90;;;;;;5029552;28;20185;-73
2021/01/25 03:27:05;;;;;;;8.50;6.53;;;0.90;99.90;;;;;;5029553;28;20198;-73
2021/01/25 03:29:32;;;;;;;12.83;7.10;;;1.00;99.90;;;;;;5029906;28;20781;-73
2021/01/25 03:31:57;;;;;;;7.03;6.33;;;1.00;99.90;;;;;;5029961;28;20174;-74
2021/01/25 03:34:23;;;;;;;10.30;6.90;;;1.10;99.90;;;;;;5029954;28;20428;-73
2021/01/25 03:36:48;;;;;;;7.17;6.47;;;1.10;99.90;;;;;;5011361;28;20256;-73
2021/01/25 03:39:14;;;;;;;6.50;5.90;;;1.10;99.90;;;;;;5029642;28;20172;-73
2021/01/25 03:41:39;;;;;;;6.17;5.60;;;1.10;99.90;;;;;;5029825;28;20182;-73
2021/01/25 03:44:05;;;;;;;8.43;6.13;;;1.10;99.90;;;;;;5029620;28;20182;-73
2021/01/25 03:46:31;;;;;;;5.90;5.40;;;1.00;99.90;;;;;;5029619;28;20231;-73
2021/01/25 03:48:56;;;;;;;5.10;4.60;;;0.90;99.90;;;;;;5029876;28;20537;-73
2021/01/25 03:51:22;;;;;;;5.43;4.73;;;0.80;99.90;;;;;;5029750;28;20174;-73
2021/01/25 03:53:48;;;;;;;4.73;4.10;;;0.80;99.90;;;;;;5029269;28;20209;-73
2021/01/25 03:56:15;;;;;;;4.47;4.07;;;0.70;99.90;;;;;;5029383;28;20178;-73
2021/01/25 03:58:41;;;;;;;7.63;4.77;;;0.80;99.90;;;;;;5029589;28;20440;-73
2021/01/25 04:01:07;;;;;;;5.23;4.43;;;0.80;99.90;;;;;;5030240;28;20436;-73
2021/01/25 04:03:32;;;;;;;7.17;4.37;;;0.80;99.90;;;;;;5029846;28;20448;-73
2021/01/25 04:05:58;;;;;;;5.33;4.83;;;0.70;99.90;;;;;;5029246;28;20246;-73
2021/01/25 04:08:24;;;;;;;5.00;4.40;;;0.70;99.90;;;;;;5030826;28;20218;-73
2021/01/25 04:10:50;;;;;;;8.07;5.30;;;0.70;99.90;;;;;;5033439;28;20265;-73
2021/01/25 04:13:15;;;;;;;5.60;4.67;;;0.70;99.90;;;;;;5033113;28;20914;-73
2021/01/25 04:15:41;;;;;;;4.87;4.37;;;0.80;99.90;;;;;;5032677;28;20285;-73
2021/01/25 04:18:06;;;;;;;6.30;5.17;;;0.90;99.90;;;;;;5033086;28;20237;-73
2021/01/25 04:20:32;;;;;;;5.93;5.33;;;0.80;99.90;;;;;;5033149;28;20254;-73
2021/01/25 04:22:58;;;;;;;7.80;5.10;;;0.80;99.90;;;;;;5033101;28;20217;-73
2021/01/25 04:25:23;;;;;;;6.33;5.40;;;0.80;99.90;;;;;;5014876;28;20232;-74
2021/01/25 04:27:49;;;;;;;5.07;4.50;;;0.80;99.90;;;;;;5032893;28;20220;-73
2021/01/25 04:30:16;;;;;;;5.27;4.87;;;0.90;99.90;;;;;;5032851;28;20185;-74
2021/01/25 04:32:42;;;;;;;6.67;5.97;;;0.90;99.90;;;;;;5032620;28;20194;-73
2021/01/25 04:35:13;;;;;;;5.27;4.70;;;0.80;99.90;;;;;;5032802;28;20440;-74
2021/01/25 04:37:42;;;;;;;5.83;5.10;;;0.80;99.90;;;;;;5032584;28;20565;-73
2021/01/25 04:40:10;;;;;;;8.23;5.47;;;0.80;99.90;;;;;;5032465;28;20511;-73
2021/01/25 04:42:37;;;;;;;5.90;5.30;;;0.90;99.90;;;;;;5032437;28;20771;-73
2021/01/25 04:45:07;;;;;;;4.57;4.17;;;0.80;99.90;;;;;;5032493;28;20531;-74
2021/01/25 04:47:35;;;;;;;6.80;6.07;;;0.80;99.90;;;;;;5031832;28;20444;-74
2021/01/25 04:50:01;;;;;;;5.30;4.80;;;0.80;99.90;;;;;;5032774;28;20627;-73
2021/01/25 04:52:28;;;;;;;7.43;5.00;;;0.80;99.90;;;;;;5032080;28;20794;-73
2021/01/25 04:54:54;;;;;;;5.10;4.53;;;0.90;99.90;;;;;;5032516;28;20940;-74
2021/01/25 04:57:20;;;;;;;5.10;4.60;;;0.90;99.90;;;;;;5031783;28;20535;-74
2021/01/25 04:59:48;;;;;;;6.43;5.50;;;0.90;99.90;;;;;;5032760;28;20491;-73
2021/01/25 05:02:13;;;;;;;7.97;6.10;;;1.00;99.90;;;;;;5032207;28;20464;-73
2021/01/25 05:04:40;;;;;;;5.43;4.93;;;1.00;99.90;;;;;;5032193;28;20456;-73
2021/01/25 05:07:06;;;;;;;9.40;5.20;;;1.00;99.90;;;;;;5031898;28;20217;-73
2021/01/25 05:09:32;;;;;;;7.17;4.93;;;1.00;99.90;;;;;;5032399;28;20463;-73
2021/01/25 05:12:03;;;;;;;8.03;5.40;;;0.90;99.90;;;;;;5032276;28;20224;-73
2021/01/25 05:14:41;;;;;;;6.20;4.53;;;1.00;99.90;;;;;;5025240;28;21027;-73
2021/01/25 05:17:11;;;;;;;8.93;5.83;;;0.90;99.90;;;;;;5013715;28;20444;-74
2021/01/25 05:19:38;;;;;;;7.10;5.50;;;1.00;99.90;;;;;;5030714;28;20833;-73
2021/01/25 05:22:35;;;;;;;8.20;5.50;;;0.90;99.90;;;;;;5031703;28;20424;-73
2021/01/25 05:25:00;;;;;;;5.97;5.37;;;0.90;99.90;;;;;;5030778;28;20540;-73
2021/01/25 05:27:30;;;;;;;6.60;4.83;;;0.90;99.90;;;;;;5031235;28;20445;-73
2021/01/25 05:30:16;;;;;;;7.27;5.40;;;0.90;99.90;;;;;;5031287;28;20202;-73
2021/01/25 05:32:49;;;;;;;5.87;5.27;;;0.90;99.90;;;;;;5024498;28;20456;-74
2021/01/25 05:35:17;;;;;;;8.03;5.60;;;0.90;99.90;;;;;;5031706;28;20459;-73
2021/01/25 05:37:44;;;;;;;5.80;5.23;;;0.90;99.90;;;;;;5031598;28;20477;-73
2021/01/25 05:40:16;;;;;;;7.00;5.67;;;0.90;99.90;;;;;;5031919;28;20421;-73
2021/01/25 05:42:42;;;;;;;5.63;5.13;;;1.00;99.90;;;;;;5031900;28;20431;-74
2021/01/25 05:45:11;;;;;;;5.60;5.00;;;1.00;99.90;;;;;;5031694;28;20425;-74
2021/01/25 05:47:43;;;;;;;7.00;5.67;;;1.10;99.90;;;;;;5031381;28;20444;-73
2021/01/25 05:50:10;;;;;;;6.17;5.57;;;1.10;99.90;;;;;;5031454;28;20428;-74
2021/01/25 05:52:41;;;;;;;6.50;5.70;;;1.10;99.90;;;;;;5031506;28;20464;-73
2021/01/25 05:55:07;;;;;;;10.67;6.50;;;1.10;99.90;;;;;;5031525;28;20432;-73
2021/01/25 05:57:33;;;;;;;6.80;5.57;;;1.20;99.90;;;;;;5030889;28;20483;-73
2021/01/25 05:59:58;;;;;;;8.73;5.90;;;1.20;99.90;;;;;;5031367;28;20425;-73
2021/01/25 06:02:25;;;;;;;7.67;6.40;;;1.20;99.90;;;;;;5031409;28;20719;-73
2021/01/25 06:04:50;;;;;;;6.20;4.60;;;1.10;99.90;;;;;;5031167;28;20240;-73
2021/01/25 06:07:16;;;;;;;6.77;5.07;;;1.20;99.90;;;;;;5030475;28;20473;-73
2021/01/25 06:09:53;;;;;;;5.70;5.20;;;1.20;99.90;;;;;;5030121;28;20552;-73
2021/01/25 06:12:28;;;;;;;6.10;5.50;;;1.20;99.90;;;;;;5031124;28;20530;-73
2021/01/25 06:15:10;;;;;;;7.43;5.87;;;1.10;99.90;;;;;;5031342;28;20429;-73
2021/01/25 06:17:38;;;;;;;7.27;5.30;;;1.00;99.90;;;;;;5030703;28;20440;-73
2021/01/25 06:20:06;;;;;;;5.33;4.80;;;0.90;99.90;;;;;;5031033;28;20461;-73
2021/01/25 06:22:31;;;;;;;6.30;5.70;;;0.90;99.90;;;;;;5030917;28;20575;-72
2021/01/25 06:25:02;;;;;;;6.20;5.00;;;0.80;99.90;;;;;;5030567;28;20537;-72
2021/01/25 06:27:30;;;;;;;8.30;7.33;;;0.70;99.90;;;;;;5030237;28;20666;-73
2021/01/25 06:30:00;;;;;;;8.77;5.30;;;0.70;99.90;;;;;;5030968;28;20429;-73
2021/01/25 06:32:31;;;;;;;6.10;5.50;;;0.70;99.90;;;;;;5030483;28;20993;-72
2021/01/25 06:34:56;;;;;;;9.80;5.97;;;0.70;99.90;;;;;;5012619;28;20436;-69
2021/01/25 06:37:25;;;;;;;8.43;6.20;;;0.70;99.90;;;;;;5030499;28;20983;-69
2021/01/25 06:39:50;;;;;;;15.23;6.53;;;0.80;99.90;;;;;;5030615;28;20305;-68
2021/01/25 06:42:17;;;;;;;9.43;5.07;;;0.90;99.90;;;;;;5030353;28;20450;-69
2021/01/25 06:44:44;;;;;;;8.37;5.83;;;0.90;99.90;;;;;;5030683;28;20565;-69
2021/01/25 06:47:15;;;;;;;6.43;5.17;;;0.90;99.90;;;;;;5030624;28;20452;-69
2021/01/25 06:49:43;;;;;;;8.47;6.50;;;0.90;99.90;;;;;;5030499;28;20464;-69
2021/01/25 06:52:10;;;;;;;11.97;6.50;;;0.90;99.90;;;;;;5030485;28;20461;-70
2021/01/25 06:54:42;;;;;;;8.00;5.70;;;0.90;99.90;;;;;;5030177;28;20491;-66
2021/01/25 06:57:08;;;;;;;8.13;6.20;;;1.00;99.90;;;;;;5030481;28;20452;-66
2021/01/25 06:59:36;;;;;;;11.47;7.07;;;1.00;99.90;;;;;;5030723;28;20441;-67
2021/01/25 07:02:09;;;;;;;8.97;5.73;;;1.10;99.90;;;;;;5029881;28;20297;-69
2021/01/25 07:04:44;;;;;;;14.60;6.50;;;1.10;99.90;;;;;;5010337;28;20775;-69
2021/01/25 07:07:21;;;;;;;9.57;6.20;;;1.20;99.90;;;;;;5009601;28;20468;-69
2021/01/25 07:09:48;;;;;;;9.30;7.57;;;1.20;99.90;;;;;;5010405;28;20941;-69
2021/01/25 07:12:13;;;;;;;9.13;7.10;;;1.10;99.90;;;;;;5003939;28;20494;-68
2021/01/25 07:14:39;;;;;;;8.33;6.40;;;1.20;99.90;;;;;;5007332;28;20465;-71
2021/01/25 07:17:12;;;;;;;8.80;6.07;;;1.20;99.90;;;;;;4998054;28;20450;-71
2021/01/25 07:19:38;;;;;;;17.80;8.27;;;1.20;99.90;;;;;;5007775;28;20653;-69
2021/01/25 07:22:04;;;;;;;10.57;6.63;;;1.30;99.90;;;;;;5010001;28;20520;-69
2021/01/25 07:24:30;;;;;;;8.50;5.93;;;1.40;99.90;;;;;;5010361;28;20178;-71
2021/01/25 07:26:58;;;;;;;9.00;6.10;;;1.40;99.90;;;;;;5009829;28;20449;-69
2021/01/25 07:29:23;;;;;;;8.33;5.40;;;1.50;99.90;;;;;;5009834;28;20462;-68
2021/01/25 07:31:51;;;;;;;6.33;5.70;;;1.40;99.90;;;;;;5010089;28;20517;-68
2021/01/25 07:34:17;;;;;;;10.70;6.33;;;1.40;99.90;;;;;;5009969;28;20179;-71
2021/01/25 07:36:43;;;;;;;10.73;6.87;;;1.40;99.90;;;;;;5009159;28;20452;-70
2021/01/25 07:39:10;;;;;;;8.40;6.70;;;1.50;99.90;;;;;;5009710;28;20733;-71
2021/01/25 07:41:37;;;;;;;12.67;6.00;;;1.60;99.90;;;;;;5010100;28;20976;-68
2021/01/25 07:44:05;;;;;;;12.07;6.87;;;1.60;99.90;;;;;;5012214;28;20430;-69
2021/01/25 07:46:31;;;;;;;7.10;6.10;;;1.60;99.90;;;;;;5013251;28;20422;-71
2021/01/25 07:48:57;;;;;;;18.30;8.67;;;1.60;99.90;;;;;;5013551;28;20940;-70
2021/01/25 07:51:28;;;;;;;8.13;6.70;;;1.70;99.90;;;;;;5013440;28;20472;-69
2021/01/25 07:53:55;;;;;;;9.03;7.13;;;1.80;99.90;;;;;;4995528;28;20682;-71
2021/01/25 07:56:25;;;;;;;9.77;6.50;;;1.70;99.90;;;;;;5013103;28;20426;-69
2021/01/25 07:59:06;;;;;;;15.43;7.40;;;1.70;99.90;;;;;;5008381;28;20434;-68
2021/01/25 08:01:46;;;;;;;12.70;6.40;;;1.70;99.90;;;;;;5003383;28;20429;-70
2021/01/25 08:04:13;;;;;;;12.60;7.80;;;1.70;99.90;;;;;;5012870;28;20499;-68
2021/01/25 08:06:40;;;;;;;14.13;8.23;;;1.70;99.90;;;;;;5012453;28;20494;-68
2021/01/25 08:09:07;;;;;;;6.93;6.17;;;1.70;99.90;;;;;;4995282;28;20441;-70
2021/01/25 08:11:35;;;;;;;7.57;6.53;;;1.70;99.90;;;;;;5012796;28;20478;-68
2021/01/25 08:14:09;;;;;;;8.67;6.93;;;1.70;99.90;;;;;;5013060;28;20500;-68
2021/01/25 08:16:38;;;;;;;16.20;8.77;;;1.80;99.90;;;;;;5012604;28;20457;-70
2021/01/25 08:19:12;;;;;;;13.20;7.03;;;1.80;99.90;;;;;;5012418;28;20436;-70
2021/01/25 08:22:05;;;;;;;13.60;8.03;;;1.70;99.90;;;;;;5013292;28;20429;-68
2021/01/25 08:24:34;;;;;;;15.37;7.60;;;1.80;99.90;;;;;;4978274;28;20476;-68
2021/01/25 08:27:18;;;;;;;7.93;6.30;;;1.90;99.90;;;;;;5012688;28;20453;-70
2021/01/25 08:29:46;;;;;;;8.93;7.93;;;2.00;99.90;;;;;;5012924;28;20532;-68
2021/01/25 08:32:24;;;;;;;13.93;7.83;;;2.10;99.90;;;;;;5013065;28;20828;-68
2021/01/25 08:35:01;;;;;;;14.17;8.50;;;2.30;99.90;;;;;;5013006;28;20434;-68
2021/01/25 08:37:28;;;;;;;9.30;6.20;;;2.30;99.90;;;;;;5012764;28;20450;-68
2021/01/25 08:39:54;;;;;;;9.37;6.83;;;2.40;99.90;;;;;;5013307;28;20472;-70
2021/01/25 08:42:23;;;;;;;10.83;7.43;;;2.30;99.90;;;;;;5013136;28;20910;-70
2021/01/25 08:45:02;;;;;;;8.40;7.40;;;2.50;99.90;;;;;;5012465;28;20194;-70
2021/01/25 08:47:31;;;;;;;13.70;8.27;;;2.70;99.90;;;;;;4994820;28;20464;-70
2021/01/25 08:49:57;;;;;;;12.90;7.97;;;2.90;99.90;;;;;;5012941;28;20434;-70
2021/01/25 08:52:35;;;;;;;18.50;8.17;;;3.10;99.90;;;;;;4995143;28;20462;-70
2021/01/25 08:55:13;;;;;;;14.80;9.27;;;3.30;99.90;;;;;;5011387;28;20422;-67
2021/01/25 08:57:41;;;;;;;12.57;9.60;;;3.20;99.90;;;;;;5012601;28;20441;-67
2021/01/25 09:00:16;;;;;;;13.17;8.67;;;3.10;99.90;;;;;;5012426;28;20433;-70
2021/01/25 09:02:42;;;;;;;14.67;8.63;;;3.10;99.90;;;;;;5012525;28;20441;-70
2021/01/25 09:05:09;;;;;;;8.87;7.80;;;3.30;99.90;;;;;;5012417;28;20854;-70
2021/01/25 09:07:34;;;;;;;8.60;7.37;;;3.40;99.90;;;;;;5011709;28;20842;-69
2021/01/25 09:10:00;;;;;;;8.80;7.90;;;3.60;99.90;;;;;;5008334;28;20446;-70
2021/01/25 09:12:25;;;;;;;13.00;8.43;;;3.60;99.90;;;;;;5012198;28;20232;-70
2021/01/25 09:14:51;;;;;;;10.80;7.87;;;3.70;99.90;;;;;;5012401;28;20175;-70
2021/01/25 09:17:17;;;;;;;10.40;9.17;;;3.70;99.90;;;;;;5011982;28;20336;-70
2021/01/25 09:19:42;;;;;;;9.67;8.00;;;3.80;99.90;;;;;;5012446;28;20206;-67
2021/01/25 09:22:10;;;;;;;7.90;7.10;;;4.00;99.90;;;;;;4978058;28;20182;-70
2021/01/25 09:24:37;;;;;;;10.17;6.70;;;4.10;99.90;;;;;;5012040;28;20544;-70
2021/01/25 09:27:03;;;;;;;8.57;6.93;;;4.00;99.90;;;;;;5011834;28;20457;-69
2021/01/25 09:29:28;;;;;;;10.10;7.60;;;3.90;99.90;;;;;;5012069;28;20513;-69
2021/01/25 09:31:54;;;;;;;10.87;7.17;;;4.00;99.90;;;;;;5011868;28;20658;-70
2021/01/25 09:34:20;;;;;;;8.20;6.77;;;4.00;99.90;;;;;;5012099;28;20475;-69
2021/01/25 09:36:46;;;;;;;7.13;5.30;;;4.10;99.90;;;;;;5002564;28;20448;-70
2021/01/25 09:39:14;;;;;;;6.50;5.90;;;4.20;99.90;;;;;;5011529;28;20215;-70
2021/01/25 09:41:43;;;;;;;16.13;6.10;;;4.10;99.90;;;;;;5011357;28;20179;-68
2021/01/25 09:44:09;;;;;;;5.87;5.20;;;4.10;99.90;;;;;;5010137;28;20422;-70
2021/01/25 09:46:35;;;;;;;4.50;4.00;;;4.40;99.90;;;;;;5010991;28;20442;-69
2021/01/25 09:49:00;;;;;;;5.37;4.90;;;4.70;99.90;;;;;;5011470;28;20186;-70
2021/01/25 09:51:26;;;;;;;6.83;4.50;;;4.80;99.90;;;;;;5011357;28;20194;-70
2021/01/25 09:53:51;;;;;;;4.67;4.27;;;4.60;99.90;;;;;;5011161;28;20286;-70
2021/01/25 09:56:17;;;;;;;4.60;4.17;;;4.50;99.90;;;;;;5011345;28;20642;-69
2021/01/25 09:58:42;;;;;;;7.10;5.50;;;4.40;99.90;;;;;;5011236;28;20592;-70
2021/01/25 10:01:08;;;;;;;6.90;5.80;;;4.30;99.90;;;;;;5011029;28;20175;-70
2021/01/25 10:03:33;;;;;;;5.07;4.57;;;4.20;99.90;;;;;;5011564;28;20191;-67
2021/01/25 10:05:59;;;;;;;6.80;4.23;;;4.20;99.90;;;;;;5010466;28;20186;-67
2021/01/25 10:08:24;;;;;;;5.80;5.10;;;4.20;99.90;;;;;;5010863;28;20194;-68
2021/01/25 10:10:50;;;;;;;6.20;4.93;;;4.40;99.90;;;;;;5011023;28;20186;-68
2021/01/25 10:13:15;;;;;;;6.00;4.80;;;4.40;99.90;;;;;;5009819;28;20202;-70
2021/01/25 10:15:41;;;;;;;8.43;4.93;;;4.70;99.90;;;;;;5005132;28;20222;-67
2021/01/25 10:18:06;;;;;;;5.40;4.50;;;4.90;99.90;;;;;;5010468;28;20209;-70
2021/01/25 10:20:32;;;;;;;6.83;5.80;;;5.20;99.90;;;;;;5010607;28;20182;-68
2021/01/25 10:22:58;;;;;;;5.60;5.10;;;5.40;99.90;;;;;;5010728;28;20174;-70
2021/01/25 10:25:23;;;;;;;4.83;4.33;;;5.50;99.90;;;;;;5009294;28;20175;-70
2021/01/25 10:27:49;;;;;;;6.43;5.67;;;5.70;99.90;;;;;;5010573;28;20237;-68
2021/01/25 10:30:17;;;;;;;5.97;5.37;;;6.10;99.90;;;;;;5010247;28;20213;-68
2021/01/25 10:32:43;;;;;;;5.40;5.00;;;5.90;99.90;;;;;;5009840;28;20481;-67
2021/01/25 10:35:10;;;;;;;7.40;4.97;;;5.50;99.90;;;;;;5010719;28;20434;-70
2021/01/25 10:37:36;;;;;;;6.70;4.60;;;5.40;99.90;;;;;;5010482;28;20203;-69
2021/01/25 10:40:03;;;;;;;6.00;5.00;;;5.00;99.90;;;;;;5010673;28;20856;-69
2021/01/25 10:42:28;;;;;;;5.53;4.20;;;4.80;99.90;;;;;;5010718;28;20503;-69
2021/01/25 10:44:54;;;;;;;5.73;4.80;;;4.50;99.90;;;;;;5010336;28;20459;-69
2021/01/25 10:47:20;;;;;;;6.90;6.23;;;4.50;99.90;;;;;;5010402;28;20695;-69
2021/01/25 10:49:47;;;;;;;6.80;6.10;;;4.70;99.90;;;;;;5010478;28;20267;-69
2021/01/25 10:52:13;;;;;;;6.27;5.13;;;5.10;99.90;;;;;;5009832;28;20445;-69
2021/01/25 10:54:39;;;;;;;5.50;5.00;;;5.60;99.90;;;;;;5009691;28;20445;-69
2021/01/25 10:57:06;;;;;;;4.60;4.20;;;6.00;99.90;;;;;;4993809;28;20446;-69
2021/01/25 10:59:32;;;;;;;3.40;3.10;;;6.20;99.90;;;;;;4993235;28;20189;-68
2021/01/25 11:01:58;;;;;;;7.20;3.80;;;6.50;99.90;;;;;;5010165;28;20430;-68
2021/01/25 11:04:23;;;;;;;5.60;3.83;;;6.40;99.90;;;;;;5010384;28;20183;-67
2021/01/25 11:06:49;;;;;;;4.40;4.03;;;6.60;99.90;;;;;;5010149;28;20232;-68
2021/01/25 11:09:18;;;;;;;3.93;3.47;;;6.40;99.90;;;;;;5010606;28;20183;-68
2021/01/25 11:11:44;;;;;;;6.30;5.30;;;6.20;99.90;;;;;;5010697;28;20183;-69
2021/01/25 11:14:10;;;;;;;3.63;3.33;;;6.40;99.90;;;;;;5010685;28;20461;-68
2021/01/25 11:16:35;;;;;;;4.27;3.50;;;6.00;99.90;;;;;;5010133;28;20454;-67
2021/01/25 11:19:01;;;;;;;9.40;7.80;;;6.10;99.90;;;;;;5006230;28;20433;-67
2021/01/25 11:21:26;;;;;;;5.07;3.90;;;5.90;99.90;;;;;;5010118;28;20171;-68
2021/01/25 11:23:52;;;;;;;5.90;3.90;;;5.60;99.90;;;;;;5010372;28;20179;-68
2021/01/25 11:26:18;;;;;;;5.80;4.07;;;5.90;99.90;;;;;;5010148;28;20193;-68
2021/01/25 11:28:45;;;;;;;4.10;3.70;;;6.40;99.90;;;;;;5009372;28;20179;-68
2021/01/25 11:31:12;;;;;;;4.07;3.40;;;7.00;99.90;;;;;;5009788;28;20810;-70
2021/01/25 11:33:37;;;;;;;4.60;3.70;;;7.40;99.90;;;;;;5009213;28;20457;-68
2021/01/25 11:36:03;;;;;;;3.77;3.40;;;7.30;99.90;;;;;;5009212;28;20496;-68
2021/01/25 11:38:29;;;;;;;4.93;3.00;;;7.40;99.90;;;;;;5004770;28;20298;-67
2021/01/25 11:40:55;;;;;;;3.93;3.33;;;7.40;99.90;;;;;;5010038;28;20528;-67
2021/01/25 11:43:20;;;;;;;4.93;3.57;;;6.80;99.90;;;;;;5009853;28;20194;-68
2021/01/25 11:45:50;;;;;;;4.53;3.57;;;6.90;99.90;;;;;;5009879;28;20726;-67
2021/01/25 11:48:17;;;;;;;3.80;3.40;;;7.10;99.90;;;;;;5010050;28;20682;-69
2021/01/25 11:50:42;;;;;;;3.97;3.57;;;7.00;99.90;;;;;;5009655;28;20438;-68
2021/01/25 11:53:08;;;;;;;6.63;3.70;;;7.10;99.90;;;;;;5009867;28;21014;-69
2021/01/25 11:55:33;;;;;;;4.73;3.43;;;6.60;99.90;;;;;;5009342;28;20171;-70
2021/01/25 11:57:59;;;;;;;3.87;3.20;;;6.10;99.90;;;;;;5009829;28;20199;-68
2021/01/25 12:00:24;;;;;;;5.47;3.83;;;5.90;99.90;;;;;;5009620;28;20179;-68
2021/01/25 12:02:50;;;;;;;4.63;3.77;;;6.00;99.90;;;;;;5009973;28;20638;-69
2021/01/25 12:05:15;;;;;;;2.70;2.50;;;5.60;99.90;;;;;;5009714;28;20179;-69
2021/01/25 12:07:41;;;;;;;3.53;3.23;;;5.30;99.90;;;;;;5009630;28;20844;-69
2021/01/25 12:10:07;;;;;;;4.90;2.33;;;5.40;99.90;;;;;;5009791;28;20226;-68
2021/01/25 12:12:32;;;;;;;2.97;2.63;;;5.40;99.90;;;;;;5009612;28;20289;-68
2021/01/25 12:14:58;;;;;;;5.10;3.17;;;5.30;99.90;;;;;;5009834;28;20182;-69
2021/01/25 12:17:23;;;;;;;2.90;2.60;;;5.20;99.90;;;;;;5009609;28;20206;-69
2021/01/25 12:19:49;;;;;;;2.43;2.27;;;5.10;99.90;;;;;;5009938;28;20580;-69
2021/01/25 12:22:16;;;;;;;7.17;3.10;;;5.10;99.90;;;;;;5009473;28;20190;-69
2021/01/25 12:24:41;;;;;;;2.90;2.70;;;5.20;99.90;;;;;;5009740;28;20186;-68
2021/01/25 12:27:07;;;;;;;3.23;2.90;;;5.30;99.90;;;;;;5009568;28;20819;-68
2021/01/25 12:29:33;;;;;;;7.73;5.83;;;5.30;99.90;;;;;;5011177;28;20179;-69
2021/01/25 12:31:59;;;;;;;3.97;2.80;;;5.30;99.90;;;;;;5013157;28;20232;-69
2021/01/25 12:34:26;;;;;;;3.43;2.70;;;5.30;99.90;;;;;;5012633;28;20473;-68
2021/01/25 12:36:53;;;;;;;4.43;3.03;;;5.10;99.90;;;;;;5012194;28;20214;-69
2021/01/25 12:39:19;;;;;;;4.20;3.80;;;4.80;99.90;;;;;;5012848;28;20437;-68
2021/01/25 12:41:45;;;;;;;3.30;3.00;;;4.90;99.90;;;;;;5012845;28;20833;-69
2021/01/25 12:44:11;;;;;;;10.10;3.70;;;5.00;99.90;;;;;;5012748;28;20434;-69
2021/01/25 12:46:36;;;;;;;6.90;3.67;;;4.90;99.90;;;;;;5011757;28;20206;-69
2021/01/25 12:49:04;;;;;;;8.03;3.90;;;4.80;99.90;;;;;;5012504;28;20661;-69
2021/01/25 12:51:29;;;;;;;6.57;4.40;;;4.70;99.90;;;;;;5011948;28;20178;-69
2021/01/25 12:53:55;;;;;;;9.73;4.40;;;4.80;99.90;;;;;;5011046;28;20462;-69
2021/01/25 12:56:21;;;;;;;7.10;4.27;;;4.70;99.90;;;;;;5011865;28;20643;-69